createdAt,value
2018-09-29T00:00:29.889Z,7.33
2018-09-29T00:05:52.157Z,5.43
2018-09-29T00:11:14.137Z,7.43
2018-09-29T00:16:36.326Z,7.33
2018-09-29T00:21:58.118Z,4.60
2018-09-29T00:27:20.330Z,6.20
2018-09-29T00:32:42.105Z,6.57
2018-09-29T00:38:04.162Z,9.27
2018-09-29T00:43:26.125Z,5.60
2018-09-29T00:48:48.098Z,5.77
2018-09-29T00:54:09.882Z,7.80
2018-09-29T00:59:32.047Z,3.83
2018-09-29T01:04:53.867Z,7.07
2018-09-29T01:10:15.914Z,7.03
2018-09-29T01:15:37.698Z,4.63
2018-09-29T01:20:59.935Z,5.53
2018-09-29T01:26:21.842Z,5.67
2018-09-29T01:31:43.972Z,6.27
2018-09-29T01:37:05.749Z,5.83
2018-09-29T01:42:27.877Z,6.13
2018-09-29T01:47:49.783Z,6.33
2018-09-29T01:53:11.946Z,5.33
2018-09-29T01:58:33.838Z,7.53
2018-09-29T02:03:56.042Z,5.13
2018-09-29T02:09:17.849Z,6.67
2018-09-29T02:14:40.087Z,6.20
2018-09-29T02:20:01.827Z,8.77
2018-09-29T02:25:23.929Z,8.73
2018-09-29T02:30:45.787Z,6.20
2018-09-29T02:36:07.942Z,6.97
2018-09-29T02:41:29.719Z,7.00
2018-09-29T02:46:51.825Z,5.53
2018-09-29T02:52:13.968Z,3.23
2018-09-29T02:57:35.906Z,5.37
2018-09-29T03:02:57.761Z,6.00
2018-09-29T03:08:19.831Z,7.57
2018-09-29T03:13:41.567Z,10.33
2018-09-29T03:19:03.683Z,5.47
2018-09-29T03:24:25.446Z,6.80
2018-09-29T03:29:47.502Z,7.50
2018-09-29T03:35:09.350Z,5.90
2018-09-29T03:40:31.486Z,7.37
2018-09-29T03:45:53.291Z,9.17
2018-09-29T03:51:15.493Z,8.80
2018-09-29T03:56:37.302Z,6.40
2018-09-29T04:01:59.455Z,7.87
2018-09-29T04:07:21.249Z,6.87
2018-09-29T04:12:43.460Z,8.73
2018-09-29T04:18:05.214Z,8.47
2018-09-29T04:23:27.351Z,4.93
2018-09-29T04:28:49.209Z,4.97
2018-09-29T04:34:11.633Z,6.77
2018-09-29T04:39:33.666Z,9.37
2018-09-29T04:44:55.651Z,7.70
2018-09-29T04:50:17.559Z,5.93
2018-09-29T04:55:39.361Z,4.80
2018-09-29T05:01:01.440Z,6.47
2018-09-29T05:06:23.447Z,7.63
2018-09-29T05:11:45.429Z,6.53
2018-09-29T05:17:07.687Z,6.40
2018-09-29T05:22:29.644Z,6.63
2018-09-29T05:27:51.451Z,6.50
2018-09-29T05:33:13.769Z,9.70
2018-09-29T05:38:35.664Z,4.27
2018-09-29T05:43:57.823Z,5.63
2018-09-29T05:49:19.803Z,6.43
2018-09-29T05:54:41.698Z,8.70
2018-09-29T06:00:03.654Z,5.77
2018-09-29T06:05:27.908Z,9.47
2018-09-29T06:10:50.130Z,6.33
2018-09-29T06:16:12.075Z,4.93
2018-09-29T06:21:34.219Z,5.10
2018-09-29T06:26:55.971Z,6.50
2018-09-29T06:32:18.162Z,5.03
2018-09-29T06:37:40.064Z,5.80
2018-09-29T06:43:02.084Z,5.73
2018-09-29T06:48:23.785Z,3.83
2018-09-29T06:53:46.300Z,8.83
2018-09-29T06:59:08.430Z,8.43
2018-09-29T07:04:30.274Z,5.37
2018-09-29T07:09:52.292Z,9.10
2018-09-29T07:15:14.415Z,4.63
2018-09-29T07:20:36.418Z,7.53
2018-09-29T07:25:58.481Z,6.23
2018-09-29T07:31:21.857Z,8.00
2018-09-29T07:36:43.725Z,6.83
2018-09-29T07:42:05.842Z,6.97
2018-09-29T07:47:27.598Z,4.20
2018-09-29T07:52:49.628Z,4.33
2018-09-29T07:58:11.811Z,5.90
2018-09-29T08:03:34.926Z,5.33
2018-09-29T08:08:56.758Z,7.20
2018-09-29T08:14:18.551Z,6.30
2018-09-29T08:19:40.566Z,7.60
2018-09-29T08:25:02.377Z,4.30
2018-09-29T08:30:24.700Z,6.47
2018-09-29T08:35:46.473Z,4.27
2018-09-29T08:41:08.474Z,6.80
2018-09-29T08:46:30.225Z,8.00
2018-09-29T08:51:52.370Z,7.50
2018-09-29T08:57:14.291Z,6.90
2018-09-29T09:02:36.614Z,3.67
2018-09-29T09:07:58.324Z,4.53
2018-09-29T09:13:20.473Z,6.13
2018-09-29T09:18:42.410Z,6.17
2018-09-29T09:24:04.584Z,6.73
2018-09-29T09:29:26.331Z,6.27
2018-09-29T09:34:48.428Z,5.13
2018-09-29T09:40:10.245Z,5.17
2018-09-29T09:45:32.310Z,4.80
2018-09-29T09:50:54.218Z,6.30
2018-09-29T09:56:16.281Z,4.87
2018-09-29T10:01:42.973Z,4.77
2018-09-29T10:07:08.077Z,11.30
2018-09-29T10:12:30.038Z,7.13
2018-09-29T10:17:52.199Z,6.87
2018-09-29T10:23:15.146Z,6.00
2018-09-29T10:28:37.470Z,7.33
2018-09-29T10:33:59.346Z,8.97
2018-09-29T10:39:21.807Z,5.97
2018-09-29T10:44:44.143Z,6.07
2018-09-29T10:50:06.001Z,8.50
2018-09-29T10:55:28.162Z,5.43
2018-09-29T11:00:49.921Z,6.77
2018-09-29T11:06:12.054Z,5.53
2018-09-29T11:11:34.254Z,5.87
2018-09-29T11:16:56.099Z,5.63
2018-09-29T11:22:17.905Z,4.03
2018-09-29T11:27:40.253Z,4.50
2018-09-29T11:33:02.480Z,5.90
2018-09-29T11:38:24.372Z,6.47
2018-09-29T11:43:46.978Z,5.43
2018-09-29T11:49:09.142Z,3.93
2018-09-29T11:54:31.026Z,5.83
2018-09-29T11:59:53.213Z,6.07
2018-09-29T12:05:15.214Z,2.57
2018-09-29T12:10:37.414Z,3.23
2018-09-29T12:15:59.238Z,4.73
2018-09-29T12:21:21.190Z,4.90
2018-09-29T12:26:43.286Z,6.30
2018-09-29T12:32:05.280Z,3.90
2018-09-29T12:37:27.218Z,3.97
2018-09-29T12:42:49.186Z,6.73
2018-09-29T12:48:11.340Z,9.10
2018-09-29T12:53:33.466Z,5.03
2018-09-29T12:58:55.191Z,4.03
2018-09-29T13:04:17.241Z,5.27
2018-09-29T13:09:39.067Z,5.33
2018-09-29T13:15:01.266Z,4.47
2018-09-29T13:20:24.887Z,7.27
2018-09-29T13:25:46.880Z,4.47
2018-09-29T13:31:08.757Z,4.10
2018-09-29T13:36:30.960Z,2.73
2018-09-29T13:41:53.383Z,5.60
2018-09-29T13:47:15.204Z,5.07
2018-09-29T13:52:38.065Z,3.60
2018-09-29T13:58:00.177Z,4.57
2018-09-29T14:03:22.389Z,4.50
2018-09-29T14:08:45.371Z,4.30
2018-09-29T14:14:11.472Z,5.63
2018-09-29T14:19:37.874Z,4.90
2018-09-29T14:25:00.234Z,4.40
2018-09-29T14:30:24.092Z,3.73
2018-09-29T14:35:46.182Z,3.47
2018-09-29T14:41:07.918Z,4.10
2018-09-29T14:46:29.968Z,5.23
2018-09-29T14:51:51.906Z,4.27
2018-09-29T14:57:14.009Z,5.17
2018-09-29T15:02:35.770Z,4.40
2018-09-29T15:07:57.885Z,7.73
2018-09-29T15:13:19.833Z,5.40
2018-09-29T15:18:41.846Z,4.00
2018-09-29T15:24:03.552Z,4.83
2018-09-29T15:29:25.821Z,4.40
2018-09-29T15:34:48.829Z,2.80
2018-09-29T15:40:10.529Z,5.00
2018-09-29T15:45:32.798Z,3.87
2018-09-29T15:50:54.626Z,3.87
2018-09-29T15:56:16.791Z,4.50
2018-09-29T16:01:40.239Z,2.43
2018-09-29T16:07:02.201Z,2.57
2018-09-29T16:12:24.137Z,2.17
2018-09-29T16:17:46.499Z,4.47
2018-09-29T16:23:08.459Z,9.43
2018-09-29T16:28:30.441Z,5.87
2018-09-29T16:33:53.142Z,2.50
2018-09-29T16:39:15.115Z,4.20
2018-09-29T16:44:37.117Z,3.80
2018-09-29T16:49:58.975Z,2.60
2018-09-29T16:55:21.088Z,2.63
2018-09-29T17:00:43.209Z,3.17
2018-09-29T17:06:05.131Z,4.83
2018-09-29T17:11:27.045Z,4.07
2018-09-29T17:16:49.518Z,4.37
2018-09-29T17:22:11.872Z,6.47
2018-09-29T17:27:33.670Z,7.37
2018-09-29T17:32:55.993Z,5.87
2018-09-29T17:38:18.322Z,4.47
2018-09-29T17:43:40.257Z,5.83
2018-09-29T17:49:04.335Z,4.30
2018-09-29T17:54:26.087Z,5.03
2018-09-29T17:59:48.779Z,4.80
2018-09-29T18:05:10.824Z,3.37
2018-09-29T18:10:33.012Z,5.03
2018-09-29T18:15:55.074Z,5.30
2018-09-29T18:21:16.718Z,5.90
2018-09-29T18:26:38.988Z,4.97
2018-09-29T18:32:00.799Z,7.10
2018-09-29T18:37:24.316Z,6.40
2018-09-29T18:42:46.360Z,8.93
2018-09-29T18:48:09.134Z,8.30
2018-09-29T18:53:34.358Z,35.00
2018-09-29T18:58:56.686Z,38.53
2018-09-29T19:04:19.459Z,59.17
2018-09-29T19:09:41.499Z,47.80
2018-09-29T19:15:04.714Z,26.10
2018-09-29T19:20:27.223Z,14.00
2018-09-29T19:25:48.868Z,8.70
2018-09-29T19:31:11.241Z,10.40
2018-09-29T19:36:33.033Z,6.73
2018-09-29T19:41:54.665Z,8.43
2018-09-29T19:47:16.702Z,5.07
2018-09-29T19:52:38.578Z,4.03
2018-09-29T19:58:00.617Z,5.60
2018-09-29T20:03:22.754Z,7.97
2018-09-29T20:08:44.648Z,4.50
2018-09-29T20:14:06.373Z,5.03
2018-09-29T20:19:28.722Z,4.87
2018-09-29T20:24:50.562Z,3.53
2018-09-29T20:30:12.774Z,4.37
2018-09-29T20:35:35.817Z,5.87
2018-09-29T20:40:58.075Z,7.00
2018-09-29T20:46:19.961Z,6.53
2018-09-29T20:51:42.218Z,6.30
2018-09-29T20:57:04.247Z,5.60
2018-09-29T21:02:26.235Z,3.47
2018-09-29T21:07:47.938Z,6.10
2018-09-29T21:13:10.164Z,8.50
2018-09-29T21:18:32.149Z,5.10
2018-09-29T21:23:54.747Z,5.87
2018-09-29T21:29:16.691Z,5.70
2018-09-29T21:34:38.764Z,6.47
2018-09-29T21:40:01.012Z,5.97
2018-09-29T21:45:23.554Z,2.83
2018-09-29T21:50:46.832Z,5.57
2018-09-29T21:56:08.999Z,6.93
2018-09-29T22:01:33.863Z,4.73
2018-09-29T22:06:55.966Z,3.33
2018-09-29T22:12:17.892Z,5.10
2018-09-29T22:17:40.092Z,4.80
2018-09-29T22:23:01.885Z,5.70
2018-09-29T22:28:24.025Z,5.53
2018-09-29T22:33:45.839Z,6.67
2018-09-29T22:39:10.105Z,5.57
2018-09-29T22:44:32.222Z,3.50
2018-09-29T22:49:54.225Z,7.23
2018-09-29T22:55:16.225Z,4.70
2018-09-29T23:00:38.383Z,6.57
2018-09-29T23:06:01.365Z,4.70
2018-09-29T23:11:23.209Z,6.37
2018-09-29T23:16:45.375Z,5.53
2018-09-29T23:22:07.189Z,6.57
2018-09-29T23:27:29.253Z,6.53
2018-09-29T23:32:51.125Z,3.87
2018-09-29T23:38:13.296Z,5.73
2018-09-29T23:43:35.293Z,4.20
2018-09-29T23:48:57.342Z,9.00
2018-09-29T23:54:19.152Z,7.80
2018-09-29T23:59:41.239Z,3.17
